sensor_id;sensor_type;location;lat;lon;timestamp;pressure;altitude;pressure_sealevel;temperature;humidity
72409;BME280;60402;48.082;11.628;2023-06-05T00:00:16;95359.22;;;16.61;73.18
72409;BME280;60402;48.082;11.628;2023-06-05T00:03:03;95355.56;;;16.60;72.90
72409;BME280;60402;48.082;11.628;2023-06-05T00:05:48;95351.63;;;16.58;74.11
72409;BME280;60402;48.082;11.628;2023-06-05T00:08:34;95345.22;;;16.48;74.35
72409;BME280;60402;48.082;11.628;2023-06-05T00:11:20;95361.91;;;16.41;75.71
72409;BME280;60402;48.082;11.628;2023-06-05T00:14:05;95364.56;;;16.44;76.21
72409;BME280;60402;48.082;11.628;2023-06-05T00:16:53;95340.31;;;16.49;76.02
72409;BME280;60402;48.082;11.628;2023-06-05T00:19:41;95356.56;;;16.57;75.25
72409;BME280;60402;48.082;11.628;2023-06-05T00:22:27;95341.25;;;16.46;75.86
72409;BME280;60402;48.082;11.628;2023-06-05T00:25:22;95331.88;;;16.30;77.00
72409;BME280;60402;48.082;11.628;2023-06-05T00:28:07;95349.22;;;16.42;77.33
72409;BME280;60402;48.082;11.628;2023-06-05T00:30:53;95337.41;;;16.34;77.71
72409;BME280;60402;48.082;11.628;2023-06-05T00:33:39;95330.84;;;16.43;77.29
72409;BME280;60402;48.082;11.628;2023-06-05T00:36:25;95338.72;;;16.48;77.49
72409;BME280;60402;48.082;11.628;2023-06-05T00:39:13;95333.91;;;16.54;77.56
72409;BME280;60402;48.082;11.628;2023-06-05T00:41:59;95342.59;;;16.35;78.81
72409;BME280;60402;48.082;11.628;2023-06-05T00:44:45;95320.53;;;16.21;79.23
72409;BME280;60402;48.082;11.628;2023-06-05T00:47:32;95327.56;;;16.11;79.85
72409;BME280;60402;48.082;11.628;2023-06-05T00:50:18;95311.44;;;16.08;80.41
72409;BME280;60402;48.082;11.628;2023-06-05T00:53:07;95329.03;;;16.30;79.66
72409;BME280;60402;48.082;11.628;2023-06-05T00:55:53;95322.59;;;16.21;80.14
72409;BME280;60402;48.082;11.628;2023-06-05T00:58:38;95318.00;;;16.23;79.95
72409;BME280;60402;48.082;11.628;2023-06-05T01:01:24;95320.53;;;16.21;80.50
72409;BME280;60402;48.082;11.628;2023-06-05T01:04:13;95332.97;;;16.33;81.01
72409;BME280;60402;48.082;11.628;2023-06-05T01:06:59;95329.22;;;16.03;82.26
72409;BME280;60402;48.082;11.628;2023-06-05T01:09:46;95326.97;;;16.07;82.47
72409;BME280;60402;48.082;11.628;2023-06-05T01:15:37;95323.34;;;16.06;82.74
72409;BME280;60402;48.082;11.628;2023-06-05T01:18:23;95316.84;;;16.06;83.15
72409;BME280;60402;48.082;11.628;2023-06-05T01:21:11;95335.34;;;16.10;83.45
72409;BME280;60402;48.082;11.628;2023-06-05T01:24:00;95309.91;;;15.98;83.52
72409;BME280;60402;48.082;11.628;2023-06-05T01:29:47;95327.69;;;15.93;84.96
72409;BME280;60402;48.082;11.628;2023-06-05T01:33:17;95329.13;;;15.88;85.22
72409;BME280;60402;48.082;11.628;2023-06-05T01:36:03;95327.75;;;15.83;85.75
72409;BME280;60402;48.082;11.628;2023-06-05T01:38:51;95329.84;;;15.74;86.53
72409;BME280;60402;48.082;11.628;2023-06-05T01:41:39;95333.53;;;15.65;87.46
72409;BME280;60402;48.082;11.628;2023-06-05T01:44:26;95303.22;;;15.44;88.04
72409;BME280;60402;48.082;11.628;2023-06-05T01:47:12;95318.97;;;15.63;88.04
72409;BME280;60402;48.082;11.628;2023-06-05T01:49:58;95297.13;;;15.60;88.26
72409;BME280;60402;48.082;11.628;2023-06-05T01:52:44;95318.34;;;15.59;89.02
72409;BME280;60402;48.082;11.628;2023-06-05T01:55:35;95309.88;;;15.41;89.74
72409;BME280;60402;48.082;11.628;2023-06-05T01:58:24;95310.44;;;15.54;89.35
72409;BME280;60402;48.082;11.628;2023-06-05T02:01:10;95310.38;;;15.39;90.18
72409;BME280;60402;48.082;11.628;2023-06-05T02:03:56;95302.28;;;15.38;90.08
72409;BME280;60402;48.082;11.628;2023-06-05T02:06:42;95304.38;;;15.28;90.63
72409;BME280;60402;48.082;11.628;2023-06-05T02:09:29;95318.19;;;15.11;92.45
72409;BME280;60402;48.082;11.628;2023-06-05T02:12:17;95327.03;;;15.13;92.68
72409;BME280;60402;48.082;11.628;2023-06-05T02:15:04;95324.38;;;15.00;93.46
72409;BME280;60402;48.082;11.628;2023-06-05T02:17:50;95329.00;;;14.89;94.33
72409;BME280;60402;48.082;11.628;2023-06-05T02:20:40;95324.72;;;14.93;93.65
72409;BME280;60402;48.082;11.628;2023-06-05T02:23:26;95314.94;;;14.85;93.61
72409;BME280;60402;48.082;11.628;2023-06-05T02:26:11;95316.19;;;14.84;94.02
72409;BME280;60402;48.082;11.628;2023-06-05T02:28:57;95320.47;;;14.79;94.43
72409;BME280;60402;48.082;11.628;2023-06-05T02:31:43;95312.25;;;14.63;95.34
72409;BME280;60402;48.082;11.628;2023-06-05T02:34:29;95321.59;;;14.45;96.97
72409;BME280;60402;48.082;11.628;2023-06-05T02:37:14;95316.56;;;14.49;96.58
72409;BME280;60402;48.082;11.628;2023-06-05T02:40:00;95310.53;;;14.66;94.11
72409;BME280;60402;48.082;11.628;2023-06-05T02:42:46;95328.66;;;14.87;93.98
72409;BME280;60402;48.082;11.628;2023-06-05T02:45:34;95323.16;;;14.83;93.88
72409;BME280;60402;48.082;11.628;2023-06-05T02:48:20;95319.84;;;14.75;94.67
72409;BME280;60402;48.082;11.628;2023-06-05T02:51:08;95314.50;;;14.59;95.93
72409;BME280;60402;48.082;11.628;2023-06-05T02:53:56;95314.03;;;14.61;96.12
72409;BME280;60402;48.082;11.628;2023-06-05T02:56:42;95313.06;;;14.64;94.66
72409;BME280;60402;48.082;11.628;2023-06-05T02:59:29;95328.06;;;14.73;95.13
72409;BME280;60402;48.082;11.628;2023-06-05T03:02:17;95318.56;;;14.76;93.63
72409;BME280;60402;48.082;11.628;2023-06-05T03:05:03;95331.84;;;14.89;92.70
72409;BME280;60402;48.082;11.628;2023-06-05T03:07:50;95312.22;;;14.91;92.52
72409;BME280;60402;48.082;11.628;2023-06-05T03:10:38;95332.47;;;15.02;92.15
72409;BME280;60402;48.082;11.628;2023-06-05T03:13:24;95313.66;;;14.86;92.40
72409;BME280;60402;48.082;11.628;2023-06-05T03:16:09;95321.88;;;14.93;92.45
72409;BME280;60402;48.082;11.628;2023-06-05T03:18:56;95304.81;;;14.84;92.36
72409;BME280;60402;48.082;11.628;2023-06-05T03:21:41;95319.16;;;14.99;92.52
72409;BME280;60402;48.082;11.628;2023-06-05T03:24:28;95306.56;;;14.81;92.79
72409;BME280;60402;48.082;11.628;2023-06-05T03:27:14;95304.06;;;14.74;93.09
72409;BME280;60402;48.082;11.628;2023-06-05T03:29:59;95301.22;;;14.74;93.28
72409;BME280;60402;48.082;11.628;2023-06-05T03:32:47;95294.09;;;14.70;93.07
72409;BME280;60402;48.082;11.628;2023-06-05T03:35:33;95311.94;;;14.70;93.89
72409;BME280;60402;48.082;11.628;2023-06-05T03:38:20;95302.78;;;14.66;93.83
72409;BME280;60402;48.082;11.628;2023-06-05T03:41:06;95296.31;;;14.66;93.76
72409;BME280;60402;48.082;11.628;2023-06-05T03:43:51;95312.59;;;14.74;94.02
72409;BME280;60402;48.082;11.628;2023-06-05T03:46:37;95317.16;;;14.72;93.66
72409;BME280;60402;48.082;11.628;2023-06-05T03:49:23;95298.03;;;14.63;93.81
72409;BME280;60402;48.082;11.628;2023-06-05T03:52:11;95304.38;;;14.58;93.91
72409;BME280;60402;48.082;11.628;2023-06-05T03:54:57;95308.81;;;14.68;93.90
72409;BME280;60402;48.082;11.628;2023-06-05T03:57:43;95304.53;;;14.64;93.92
72409;BME280;60402;48.082;11.628;2023-06-05T04:00:28;95315.91;;;14.73;93.82
72409;BME280;60402;48.082;11.628;2023-06-05T04:03:14;95313.84;;;14.73;93.94
72409;BME280;60402;48.082;11.628;2023-06-05T04:06:00;95320.00;;;14.72;94.28
72409;BME280;60402;48.082;11.628;2023-06-05T04:08:45;95292.84;;;14.52;94.48
72409;BME280;60402;48.082;11.628;2023-06-05T04:11:31;95320.78;;;14.72;94.37
72409;BME280;60402;48.082;11.628;2023-06-05T04:14:18;95309.09;;;14.70;94.24
72409;BME280;60402;48.082;11.628;2023-06-05T04:17:04;95325.69;;;14.81;95.11
72409;BME280;60402;48.082;11.628;2023-06-05T04:19:49;95314.44;;;14.87;94.00
72409;BME280;60402;48.082;11.628;2023-06-05T04:22:35;95323.94;;;14.93;94.17
72409;BME280;60402;48.082;11.628;2023-06-05T04:25:21;95323.94;;;14.93;94.56
72409;BME280;60402;48.082;11.628;2023-06-05T04:28:07;95337.19;;;14.96;94.01
72409;BME280;60402;48.082;11.628;2023-06-05T04:30:53;95316.19;;;14.93;93.79
72409;BME280;60402;48.082;11.628;2023-06-05T04:33:40;95298.75;;;15.00;93.94
72409;BME280;60402;48.082;11.628;2023-06-05T04:36:27;95315.50;;;15.17;94.13
72409;BME280;60402;48.082;11.628;2023-06-05T04:39:13;95322.06;;;15.32;93.95
72409;BME280;60402;48.082;11.628;2023-06-05T04:42:00;95310.41;;;15.30;93.95
72409;BME280;60402;48.082;11.628;2023-06-05T04:44:55;95322.88;;;15.32;95.41
72409;BME280;60402;48.082;11.628;2023-06-05T04:47:41;95321.28;;;15.31;96.23
72409;BME280;60402;48.082;11.628;2023-06-05T04:50:27;95325.81;;;15.47;95.45
72409;BME280;60402;48.082;11.628;2023-06-05T04:53:13;95322.50;;;15.49;95.06
72409;BME280;60402;48.082;11.628;2023-06-05T04:55:59;95313.38;;;15.36;95.53
72409;BME280;60402;48.082;11.628;2023-06-05T04:58:45;95322.25;;;15.62;94.27
72409;BME280;60402;48.082;11.628;2023-06-05T05:01:32;95322.47;;;15.58;94.38
72409;BME280;60402;48.082;11.628;2023-06-05T05:04:18;95310.84;;;15.28;95.71
72409;BME280;60402;48.082;11.628;2023-06-05T05:07:04;95323.03;;;15.29;96.05
72409;BME280;60402;48.082;11.628;2023-06-05T05:09:50;95312.63;;;15.26;96.17
72409;BME280;60402;48.082;11.628;2023-06-05T05:12:36;95316.28;;;15.17;96.37
72409;BME280;60402;48.082;11.628;2023-06-05T05:15:22;95323.13;;;15.53;95.36
72409;BME280;60402;48.082;11.628;2023-06-05T05:18:08;95320.69;;;15.60;94.93
72409;BME280;60402;48.082;11.628;2023-06-05T05:20:54;95330.97;;;15.76;93.95
72409;BME280;60402;48.082;11.628;2023-06-05T05:23:39;95335.84;;;15.76;94.00
72409;BME280;60402;48.082;11.628;2023-06-05T05:26:25;95321.38;;;15.89;93.00
72409;BME280;60402;48.082;11.628;2023-06-05T05:29:11;95334.25;;;16.08;92.30
72409;BME280;60402;48.082;11.628;2023-06-05T05:31:57;95314.28;;;16.08;91.49
72409;BME280;60402;48.082;11.628;2023-06-05T05:34:42;95321.88;;;16.11;91.19
72409;BME280;60402;48.082;11.628;2023-06-05T05:37:28;95322.88;;;16.23;90.67
72409;BME280;60402;48.082;11.628;2023-06-05T05:40:14;95327.28;;;16.33;90.72
72409;BME280;60402;48.082;11.628;2023-06-05T05:43:00;95323.06;;;16.43;90.17
72409;BME280;60402;48.082;11.628;2023-06-05T05:45:45;95341.88;;;16.50;89.80
72409;BME280;60402;48.082;11.628;2023-06-05T05:48:35;95338.53;;;16.51;90.06
72409;BME280;60402;48.082;11.628;2023-06-05T05:51:21;95343.38;;;16.60;89.86
72409;BME280;60402;48.082;11.628;2023-06-05T05:54:06;95344.44;;;16.86;88.90
72409;BME280;60402;48.082;11.628;2023-06-05T05:56:55;95339.63;;;16.93;88.38
72409;BME280;60402;48.082;11.628;2023-06-05T05:59:41;95340.13;;;16.91;87.79
72409;BME280;60402;48.082;11.628;2023-06-05T06:02:27;95337.38;;;16.97;87.01
72409;BME280;60402;48.082;11.628;2023-06-05T06:05:13;95349.56;;;16.97;87.10
72409;BME280;60402;48.082;11.628;2023-06-05T06:07:59;95337.78;;;17.04;87.15
72409;BME280;60402;48.082;11.628;2023-06-05T06:10:45;95342.91;;;17.15;86.53
72409;BME280;60402;48.082;11.628;2023-06-05T06:13:31;95341.09;;;16.88;88.17
72409;BME280;60402;48.082;11.628;2023-06-05T06:16:18;95350.19;;;17.01;87.83
72409;BME280;60402;48.082;11.628;2023-06-05T06:19:04;95352.56;;;17.47;85.99
72409;BME280;60402;48.082;11.628;2023-06-05T06:21:50;95356.19;;;17.48;85.59
72409;BME280;60402;48.082;11.628;2023-06-05T06:24:39;95350.31;;;17.36;85.04
72409;BME280;60402;48.082;11.628;2023-06-05T06:27:25;95335.63;;;17.44;85.00
72409;BME280;60402;48.082;11.628;2023-06-05T06:30:10;95336.50;;;17.35;85.21
72409;BME280;60402;48.082;11.628;2023-06-05T06:32:57;95354.41;;;17.35;86.25
72409;BME280;60402;48.082;11.628;2023-06-05T06:35:45;95327.84;;;17.15;86.67
72409;BME280;60402;48.082;11.628;2023-06-05T06:38:31;95352.06;;;17.04;87.88
72409;BME280;60402;48.082;11.628;2023-06-05T06:41:17;95347.91;;;17.35;86.59
72409;BME280;60402;48.082;11.628;2023-06-05T06:44:04;95342.41;;;17.61;85.16
72409;BME280;60402;48.082;11.628;2023-06-05T06:46:50;95358.44;;;17.58;85.63
72409;BME280;60402;48.082;11.628;2023-06-05T06:49:36;95350.97;;;17.76;84.92
72409;BME280;60402;48.082;11.628;2023-06-05T06:52:21;95371.06;;;17.67;85.27
72409;BME280;60402;48.082;11.628;2023-06-05T06:55:07;95355.91;;;18.10;82.76
72409;BME280;60402;48.082;11.628;2023-06-05T06:57:53;95349.72;;;18.12;82.17
72409;BME280;60402;48.082;11.628;2023-06-05T07:00:39;95346.59;;;18.30;81.30
72409;BME280;60402;48.082;11.628;2023-06-05T07:03:26;95372.63;;;18.53;81.18
72409;BME280;60402;48.082;11.628;2023-06-05T07:06:11;95376.25;;;18.88;79.74
72409;BME280;60402;48.082;11.628;2023-06-05T07:08:57;95361.38;;;19.36;77.74
72409;BME280;60402;48.082;11.628;2023-06-05T07:11:43;95363.06;;;19.23;77.62
72409;BME280;60402;48.082;11.628;2023-06-05T07:14:28;95358.91;;;18.98;78.41
72409;BME280;60402;48.082;11.628;2023-06-05T07:17:14;95373.38;;;18.68;79.58
72409;BME280;60402;48.082;11.628;2023-06-05T07:20:00;95365.69;;;18.59;80.11
72409;BME280;60402;48.082;11.628;2023-06-05T07:22:45;95357.47;;;18.47;80.77
72409;BME280;60402;48.082;11.628;2023-06-05T07:25:31;95358.41;;;18.58;80.25
72409;BME280;60402;48.082;11.628;2023-06-05T07:28:17;95364.41;;;18.81;80.28
72409;BME280;60402;48.082;11.628;2023-06-05T07:31:03;95347.19;;;18.75;79.69
72409;BME280;60402;48.082;11.628;2023-06-05T07:33:49;95369.63;;;18.42;82.14
72409;BME280;60402;48.082;11.628;2023-06-05T07:36:35;95360.41;;;19.19;79.06
72409;BME280;60402;48.082;11.628;2023-06-05T07:39:22;95374.41;;;19.11;79.49
72409;BME280;60402;48.082;11.628;2023-06-05T07:42:08;95357.50;;;19.65;76.78
72409;BME280;60402;48.082;11.628;2023-06-05T07:44:53;95364.00;;;20.72;73.20
72409;BME280;60402;48.082;11.628;2023-06-05T07:47:39;95352.25;;;21.97;66.99
72409;BME280;60402;48.082;11.628;2023-06-05T07:50:25;95350.59;;;21.17;69.35
72409;BME280;60402;48.082;11.628;2023-06-05T07:53:11;95347.84;;;21.79;67.60
72409;BME280;60402;48.082;11.628;2023-06-05T07:55:56;95341.69;;;22.67;64.47
72409;BME280;60402;48.082;11.628;2023-06-05T07:58:42;95345.03;;;23.87;60.07
72409;BME280;60402;48.082;11.628;2023-06-05T08:01:34;95352.50;;;24.02;58.54
72409;BME280;60402;48.082;11.628;2023-06-05T08:04:21;95360.34;;;24.07;58.51
72409;BME280;60402;48.082;11.628;2023-06-05T08:07:10;95339.38;;;25.04;54.89
72409;BME280;60402;48.082;11.628;2023-06-05T08:09:56;95353.69;;;24.47;55.97
72409;BME280;60402;48.082;11.628;2023-06-05T08:12:42;95363.44;;;24.44;55.88
72409;BME280;60402;48.082;11.628;2023-06-05T08:15:27;95350.63;;;24.64;54.56
72409;BME280;60402;48.082;11.628;2023-06-05T08:18:14;95359.78;;;23.78;56.27
72409;BME280;60402;48.082;11.628;2023-06-05T08:21:00;95357.72;;;23.73;58.37
72409;BME280;60402;48.082;11.628;2023-06-05T08:23:46;95360.78;;;23.39;58.80
72409;BME280;60402;48.082;11.628;2023-06-05T08:26:31;95355.53;;;22.80;60.55
72409;BME280;60402;48.082;11.628;2023-06-05T08:29:17;95331.84;;;22.29;61.78
72409;BME280;60402;48.082;11.628;2023-06-05T08:32:04;95341.28;;;23.15;60.39
72409;BME280;60402;48.082;11.628;2023-06-05T08:34:50;95348.03;;;23.29;59.01
72409;BME280;60402;48.082;11.628;2023-06-05T08:37:36;95354.72;;;23.49;58.12
72409;BME280;60402;48.082;11.628;2023-06-05T08:40:22;95356.34;;;23.38;58.45
72409;BME280;60402;48.082;11.628;2023-06-05T08:43:08;95348.97;;;22.90;59.38
72409;BME280;60402;48.082;11.628;2023-06-05T08:45:55;95336.91;;;22.86;58.46
72409;BME280;60402;48.082;11.628;2023-06-05T08:48:47;95337.28;;;23.24;57.95
72409;BME280;60402;48.082;11.628;2023-06-05T08:51:33;95338.97;;;23.03;58.03
72409;BME280;60402;48.082;11.628;2023-06-05T08:54:19;95326.00;;;22.68;58.45
72409;BME280;60402;48.082;11.628;2023-06-05T08:57:06;95335.19;;;22.55;58.33
72409;BME280;60402;48.082;11.628;2023-06-05T08:59:52;95345.00;;;22.99;58.39
72409;BME280;60402;48.082;11.628;2023-06-05T09:02:40;95345.47;;;23.09;58.01
72409;BME280;60402;48.082;11.628;2023-06-05T09:05:28;95346.56;;;23.06;56.92
72409;BME280;60402;48.082;11.628;2023-06-05T09:08:16;95326.94;;;22.99;57.21
72409;BME280;60402;48.082;11.628;2023-06-05T09:11:25;95340.28;;;23.02;56.26
72409;BME280;60402;48.082;11.628;2023-06-05T09:14:11;95337.50;;;23.32;55.73
72409;BME280;60402;48.082;11.628;2023-06-05T09:17:00;95341.09;;;22.85;57.27
72409;BME280;60402;48.082;11.628;2023-06-05T09:19:46;95329.22;;;22.25;56.22
72409;BME280;60402;48.082;11.628;2023-06-05T09:22:33;95339.81;;;22.81;55.71
72409;BME280;60402;48.082;11.628;2023-06-05T09:25:21;95338.84;;;22.61;55.01
72409;BME280;60402;48.082;11.628;2023-06-05T09:28:07;95340.75;;;22.08;56.09
72409;BME280;60402;48.082;11.628;2023-06-05T09:30:58;95325.31;;;22.28;56.34
72409;BME280;60402;48.082;11.628;2023-06-05T09:33:54;95336.06;;;21.88;57.58
72409;BME280;60402;48.082;11.628;2023-06-05T09:36:46;95317.69;;;22.42;57.25
72409;BME280;60402;48.082;11.628;2023-06-05T09:39:34;95318.47;;;22.54;56.95
72409;BME280;60402;48.082;11.628;2023-06-05T09:42:33;95327.09;;;22.54;55.21
72409;BME280;60402;48.082;11.628;2023-06-05T09:45:19;95334.16;;;22.53;55.18
72409;BME280;60402;48.082;11.628;2023-06-05T09:48:13;95323.81;;;22.91;54.94
72409;BME280;60402;48.082;11.628;2023-06-05T09:51:10;95325.66;;;22.88;56.95
72409;BME280;60402;48.082;11.628;2023-06-05T09:53:57;95324.13;;;22.76;55.83
72409;BME280;60402;48.082;11.628;2023-06-05T09:56:47;95332.66;;;23.04;55.52
72409;BME280;60402;48.082;11.628;2023-06-05T09:59:35;95321.41;;;23.06;53.79
72409;BME280;60402;48.082;11.628;2023-06-05T10:02:35;95309.78;;;23.23;55.15
72409;BME280;60402;48.082;11.628;2023-06-05T10:05:21;95313.75;;;23.14;54.95
72409;BME280;60402;48.082;11.628;2023-06-05T10:08:07;95298.69;;;23.33;55.41
72409;BME280;60402;48.082;11.628;2023-06-05T10:10:56;95312.91;;;23.25;54.66
72409;BME280;60402;48.082;11.628;2023-06-05T10:13:42;95311.28;;;23.35;53.31
72409;BME280;60402;48.082;11.628;2023-06-05T10:16:28;95303.19;;;23.28;54.92
72409;BME280;60402;48.082;11.628;2023-06-05T10:19:15;95317.00;;;23.41;53.96
72409;BME280;60402;48.082;11.628;2023-06-05T10:22:01;95319.34;;;23.01;55.25
72409;BME280;60402;48.082;11.628;2023-06-05T10:24:54;95288.72;;;22.92;54.37
72409;BME280;60402;48.082;11.628;2023-06-05T10:31:08;95294.13;;;22.49;56.28
72409;BME280;60402;48.082;11.628;2023-06-05T10:34:55;95308.97;;;22.70;54.25
72409;BME280;60402;48.082;11.628;2023-06-05T10:37:29;95312.00;;;23.00;54.23
72409;BME280;60402;48.082;11.628;2023-06-05T10:40:16;95290.41;;;22.60;53.54
72409;BME280;60402;48.082;11.628;2023-06-05T10:49:18;95289.91;;;22.56;53.19
72409;BME280;60402;48.082;11.628;2023-06-05T10:52:34;95294.69;;;23.06;52.49
72409;BME280;60402;48.082;11.628;2023-06-05T10:55:22;95304.31;;;22.56;51.58
72409;BME280;60402;48.082;11.628;2023-06-05T10:58:12;95289.59;;;22.65;52.46
72409;BME280;60402;48.082;11.628;2023-06-05T11:01:19;95299.38;;;22.45;53.59
72409;BME280;60402;48.082;11.628;2023-06-05T11:04:05;95298.91;;;22.18;55.83
72409;BME280;60402;48.082;11.628;2023-06-05T11:10:08;95310.41;;;21.96;57.78
72409;BME280;60402;48.082;11.628;2023-06-05T11:12:55;95286.13;;;21.69;58.14
72409;BME280;60402;48.082;11.628;2023-06-05T11:15:41;95301.50;;;22.11;57.32
72409;BME280;60402;48.082;11.628;2023-06-05T11:18:29;95293.16;;;22.18;55.53
72409;BME280;60402;48.082;11.628;2023-06-05T11:21:15;95287.91;;;22.06;56.29
72409;BME280;60402;48.082;11.628;2023-06-05T11:24:20;95278.53;;;22.16;57.36
72409;BME280;60402;48.082;11.628;2023-06-05T11:27:06;95293.19;;;21.79;58.21
72409;BME280;60402;48.082;11.628;2023-06-05T11:29:54;95289.75;;;21.92;58.22
72409;BME280;60402;48.082;11.628;2023-06-05T11:32:41;95279.03;;;21.98;57.65
72409;BME280;60402;48.082;11.628;2023-06-05T11:35:27;95282.31;;;22.53;57.07
72409;BME280;60402;48.082;11.628;2023-06-05T11:38:14;95290.69;;;22.56;56.87
72409;BME280;60402;48.082;11.628;2023-06-05T11:41:05;95289.22;;;22.22;57.61
72409;BME280;60402;48.082;11.628;2023-06-05T11:43:52;95282.69;;;21.87;57.88
72409;BME280;60402;48.082;11.628;2023-06-05T11:46:38;95291.06;;;22.19;57.78
72409;BME280;60402;48.082;11.628;2023-06-05T11:49:26;95270.91;;;22.08;57.67
72409;BME280;60402;48.082;11.628;2023-06-05T11:52:17;95284.44;;;22.47;57.14
72409;BME280;60402;48.082;11.628;2023-06-05T11:55:30;95286.19;;;22.66;55.33
72409;BME280;60402;48.082;11.628;2023-06-05T11:58:29;95283.88;;;22.59;56.64
72409;BME280;60402;48.082;11.628;2023-06-05T12:01:17;95264.59;;;22.32;58.92
72409;BME280;60402;48.082;11.628;2023-06-05T12:04:07;95260.72;;;22.18;60.26
72409;BME280;60402;48.082;11.628;2023-06-05T12:06:53;95261.47;;;22.24;59.00
72409;BME280;60402;48.082;11.628;2023-06-05T12:09:50;95279.81;;;22.15;58.24
72409;BME280;60402;48.082;11.628;2023-06-05T12:12:54;95264.38;;;22.18;58.05
72409;BME280;60402;48.082;11.628;2023-06-05T12:15:40;95274.03;;;22.10;58.02
72409;BME280;60402;48.082;11.628;2023-06-05T12:18:32;95270.94;;;22.13;59.39
72409;BME280;60402;48.082;11.628;2023-06-05T12:21:25;95250.84;;;21.52;59.13
72409;BME280;60402;48.082;11.628;2023-06-05T12:24:12;95255.75;;;22.02;60.09
72409;BME280;60402;48.082;11.628;2023-06-05T12:26:59;95251.03;;;22.04;59.76
72409;BME280;60402;48.082;11.628;2023-06-05T12:29:52;95262.31;;;22.02;60.43
72409;BME280;60402;48.082;11.628;2023-06-05T12:32:38;95252.41;;;21.69;61.53
72409;BME280;60402;48.082;11.628;2023-06-05T12:35:24;95250.53;;;21.94;59.55
72409;BME280;60402;48.082;11.628;2023-06-05T12:38:10;95260.44;;;22.05;59.94
72409;BME280;60402;48.082;11.628;2023-06-05T12:40:56;95257.09;;;21.84;60.35
72409;BME280;60402;48.082;11.628;2023-06-05T12:43:42;95250.00;;;22.02;58.80
72409;BME280;60402;48.082;11.628;2023-06-05T12:46:28;95259.72;;;21.31;62.28
72409;BME280;60402;48.082;11.628;2023-06-05T12:49:14;95230.69;;;21.68;61.44
72409;BME280;60402;48.082;11.628;2023-06-05T12:51:59;95242.44;;;21.93;61.59
72409;BME280;60402;48.082;11.628;2023-06-05T12:54:46;95241.66;;;21.92;59.84
72409;BME280;60402;48.082;11.628;2023-06-05T12:57:32;95257.09;;;21.84;60.28
72409;BME280;60402;48.082;11.628;2023-06-05T13:00:19;95243.78;;;21.53;61.49
72409;BME280;60402;48.082;11.628;2023-06-05T13:03:06;95236.97;;;21.73;61.06
72409;BME280;60402;48.082;11.628;2023-06-05T13:05:52;95244.03;;;21.49;62.97
72409;BME280;60402;48.082;11.628;2023-06-05T13:08:37;95247.19;;;21.62;62.24
72409;BME280;60402;48.082;11.628;2023-06-05T13:11:23;95254.97;;;22.07;62.42
72409;BME280;60402;48.082;11.628;2023-06-05T13:14:09;95242.69;;;22.12;61.83
72409;BME280;60402;48.082;11.628;2023-06-05T13:16:56;95232.97;;;22.26;62.04
72409;BME280;60402;48.082;11.628;2023-06-05T13:19:41;95245.00;;;22.25;61.48
72409;BME280;60402;48.082;11.628;2023-06-05T13:22:27;95233.03;;;21.81;61.85
72409;BME280;60402;48.082;11.628;2023-06-05T13:25:13;95239.88;;;21.50;61.82
72409;BME280;60402;48.082;11.628;2023-06-05T13:27:58;95239.34;;;21.52;62.01
72409;BME280;60402;48.082;11.628;2023-06-05T13:30:44;95236.72;;;21.59;62.21
72409;BME280;60402;48.082;11.628;2023-06-05T13:33:30;95256.56;;;21.68;61.37
72409;BME280;60402;48.082;11.628;2023-06-05T13:36:16;95233.59;;;21.46;61.25
72409;BME280;60402;48.082;11.628;2023-06-05T13:39:01;95245.63;;;21.50;61.76
72409;BME280;60402;48.082;11.628;2023-06-05T13:41:47;95230.19;;;21.59;60.99
72409;BME280;60402;48.082;11.628;2023-06-05T13:44:32;95241.94;;;21.27;62.78
72409;BME280;60402;48.082;11.628;2023-06-05T13:47:19;95234.91;;;21.39;61.42
72409;BME280;60402;48.082;11.628;2023-06-05T13:50:06;95228.34;;;21.22;62.20
72409;BME280;60402;48.082;11.628;2023-06-05T13:52:52;95245.03;;;21.12;62.19
72409;BME280;60402;48.082;11.628;2023-06-05T13:55:38;95244.00;;;21.21;61.74
72409;BME280;60402;48.082;11.628;2023-06-05T13:58:25;95235.38;;;21.15;62.22
72409;BME280;60402;48.082;11.628;2023-06-05T14:01:10;95219.72;;;21.28;61.50
72409;BME280;60402;48.082;11.628;2023-06-05T14:03:56;95216.63;;;21.37;61.10
72409;BME280;60402;48.082;11.628;2023-06-05T14:06:43;95232.25;;;21.86;60.50
72409;BME280;60402;48.082;11.628;2023-06-05T14:09:29;95228.34;;;21.22;62.33
72409;BME280;60402;48.082;11.628;2023-06-05T14:12:15;95222.38;;;21.37;62.71
72409;BME280;60402;48.082;11.628;2023-06-05T14:15:02;95224.16;;;21.23;62.72
72409;BME280;60402;48.082;11.628;2023-06-05T14:17:49;95216.34;;;21.35;60.73
72409;BME280;60402;48.082;11.628;2023-06-05T14:20:35;95216.34;;;21.40;61.53
72409;BME280;60402;48.082;11.628;2023-06-05T14:23:21;95230.69;;;21.24;62.50
72409;BME280;60402;48.082;11.628;2023-06-05T14:26:08;95216.00;;;20.82;64.55
72409;BME280;60402;48.082;11.628;2023-06-05T14:28:54;95195.38;;;20.78;64.63
72409;BME280;60402;48.082;11.628;2023-06-05T14:31:40;95218.59;;;20.69;65.30
72409;BME280;60402;48.082;11.628;2023-06-05T14:34:25;95209.53;;;21.10;63.38
72409;BME280;60402;48.082;11.628;2023-06-05T14:37:11;95206.13;;;21.28;63.31
72409;BME280;60402;48.082;11.628;2023-06-05T14:39:57;95229.16;;;21.39;63.82
72409;BME280;60402;48.082;11.628;2023-06-05T14:42:42;95212.41;;;21.10;65.11
72409;BME280;60402;48.082;11.628;2023-06-05T14:45:28;95219.44;;;21.26;65.15
72409;BME280;60402;48.082;11.628;2023-06-05T14:48:14;95210.06;;;21.59;64.62
72409;BME280;60402;48.082;11.628;2023-06-05T14:50:59;95204.56;;;21.50;64.50
72409;BME280;60402;48.082;11.628;2023-06-05T14:53:45;95195.16;;;21.49;65.05